aviador You're here:

KPOE Decoded Metar

FORT POLK in LA, USA
Report Time2017-12-17 07:58:00
UTC Time2017-12-17 08:05:45
Flight Rules ifr IFR
Wind320° at 13 kt
W.Decomp.*RWY 34: 12.1 kt HW 4.9 kt LCW
W.Rank320° ranks 28
Current wind is above 320° avg. (7.4)
Visibility2012 m
Phenomena:Rain
Mist
Clouds:Broken 005 Hf
Overcast 015 Hf
Ceiling500 ft
Temp11°C (ISA -3)
Dew Point11°C (100% RH)
AAT6.6°C
QNH1018 hPa
Density Alt-59 ft
Elevation331 ft
Report Wrong Elevation
Raw Report
METAR KPOE 170758Z AUTO 32013KT 1 1/4SM RA BR BKN005 OVC015 11/11 A3007
RMK AO2 SLP184 P0055 T01130107=

Extra information for KPOE:More info

Metar Taf Metar & Taf Last 4 Metars F.Rules Stats Wind Profile Meteogram Temp Stats Airport Information Weather charts Add Link Nearby VenuesMetar ALERT Operation Metar Decoded Social comments

AIRNAV info for KPOE